createdAt,value
2017-09-28T00:00:21.175Z,1012.5
2017-09-28T00:01:21.197Z,1012.53
2017-09-28T00:02:21.214Z,1012.48
2017-09-28T00:03:21.234Z,1012.47
2017-09-28T00:04:21.254Z,1012.5
2017-09-28T00:05:21.275Z,1012.51
2017-09-28T00:06:21.295Z,1012.48
2017-09-28T00:07:21.315Z,1012.51
2017-09-28T00:08:21.333Z,1012.46
2017-09-28T00:09:21.353Z,1012.47
2017-09-28T00:10:21.376Z,1012.48
2017-09-28T00:11:21.395Z,1012.51
2017-09-28T00:12:21.414Z,1012.48
2017-09-28T00:13:21.437Z,1012.48
2017-09-28T00:14:21.453Z,1012.44
2017-09-28T00:15:21.474Z,1012.45
2017-09-28T00:16:21.493Z,1012.41
2017-09-28T00:17:21.514Z,1012.42
2017-09-28T00:18:21.535Z,1012.36
2017-09-28T00:19:21.554Z,1012.39
2017-09-28T00:20:21.576Z,1012.4
2017-09-28T00:21:21.593Z,1012.39
2017-09-28T00:22:21.613Z,1012.43
2017-09-28T00:23:21.634Z,1012.41
2017-09-28T00:24:21.654Z,1012.42
2017-09-28T00:25:21.673Z,1012.4
2017-09-28T00:26:21.693Z,1012.44
2017-09-28T00:27:21.713Z,1012.43
2017-09-28T00:28:21.731Z,1012.46
2017-09-28T00:29:21.753Z,1012.41
2017-09-28T00:30:21.773Z,1012.43
2017-09-28T00:31:21.792Z,1012.41
2017-09-28T00:32:21.810Z,1012.42
2017-09-28T00:33:21.831Z,1012.42
2017-09-28T00:34:21.852Z,1012.42
2017-09-28T00:35:21.870Z,1012.4
2017-09-28T00:36:21.890Z,1012.42
2017-09-28T00:37:21.911Z,1012.42
2017-09-28T00:38:21.929Z,1012.39
2017-09-28T00:39:21.950Z,1012.42
2017-09-28T00:40:21.968Z,1012.43
2017-09-28T00:41:21.990Z,1012.46
2017-09-28T00:42:22.011Z,1012.48
2017-09-28T00:43:22.030Z,1012.46
2017-09-28T00:44:22.049Z,1012.48
2017-09-28T00:45:22.069Z,1012.47
2017-09-28T00:46:22.087Z,1012.42
2017-09-28T00:47:22.107Z,1012.42
2017-09-28T00:48:22.127Z,1012.37
2017-09-28T00:49:22.148Z,1012.41
2017-09-28T00:50:22.167Z,1012.43
2017-09-28T00:51:22.186Z,1012.4
2017-09-28T00:52:22.206Z,1012.34
2017-09-28T00:53:22.227Z,1012.35
2017-09-28T00:54:22.244Z,1012.31
2017-09-28T00:55:22.265Z,1012.3
2017-09-28T00:56:22.285Z,1012.34
2017-09-28T00:57:22.303Z,1012.29
2017-09-28T00:58:22.326Z,1012.31
2017-09-28T00:59:22.343Z,1012.32
2017-09-28T01:00:22.366Z,1012.32
2017-09-28T01:01:22.382Z,1012.31
2017-09-28T01:02:22.405Z,1012.33
2017-09-28T01:03:22.421Z,1012.33
2017-09-28T01:04:22.440Z,1012.31
2017-09-28T01:05:22.460Z,1012.34
2017-09-28T01:06:22.482Z,1012.35
2017-09-28T01:07:22.500Z,1012.35
2017-09-28T01:08:22.519Z,1012.29
2017-09-28T01:09:22.538Z,1012.33
2017-09-28T01:10:22.558Z,1012.33
2017-09-28T01:11:22.580Z,1012.32
2017-09-28T02:59:19.865Z,1012.3
2017-09-28T03:00:19.884Z,1012.32
2017-09-28T03:01:19.907Z,1012.31
2017-09-28T03:02:19.924Z,1012.32
2017-09-28T03:03:19.942Z,1012.33
2017-09-28T03:04:19.961Z,1012.35
2017-09-28T03:05:19.979Z,1012.35
2017-09-28T03:06:19.998Z,1012.34
2017-09-28T03:07:20.019Z,1012.39
2017-09-28T03:08:20.035Z,1012.36
2017-09-28T03:09:20.056Z,1012.39
2017-09-28T03:10:20.074Z,1012.38
2017-09-28T03:11:20.096Z,1012.38
2017-09-28T03:12:20.112Z,1012.4
2017-09-28T03:13:20.131Z,1012.35
2017-09-28T03:14:20.150Z,1012.36
2017-09-28T03:15:20.168Z,1012.39
2017-09-28T03:16:20.189Z,1012.34
2017-09-28T03:17:20.206Z,1012.36
2017-09-28T03:18:20.227Z,1012.4
2017-09-28T03:19:20.245Z,1012.37
2017-09-28T03:20:20.264Z,1012.39
2017-09-28T03:21:20.281Z,1012.41
2017-09-28T03:22:20.300Z,1012.39
2017-09-28T03:23:20.318Z,1012.39
2017-09-28T03:24:20.337Z,1012.38
2017-09-28T03:25:20.358Z,1012.41
2017-09-28T03:26:20.376Z,1012.37
2017-09-28T03:27:20.394Z,1012.39
2017-09-28T03:28:20.414Z,1012.42
2017-09-28T03:29:20.435Z,1012.41
2017-09-28T03:30:20.454Z,1012.38
2017-09-28T03:31:20.467Z,1012.4
2017-09-28T03:32:20.486Z,1012.4
2017-09-28T03:33:20.509Z,1012.41
2017-09-28T03:34:20.525Z,1012.38
2017-09-28T03:35:20.570Z,1012.41
2017-09-28T03:36:20.564Z,1012.39
2017-09-28T03:37:20.582Z,1012.41
2017-09-28T03:38:20.600Z,1012.41
2017-09-28T03:39:20.619Z,1012.42
2017-09-28T03:40:20.638Z,1012.42
2017-09-28T03:41:20.656Z,1012.41
2017-09-28T03:42:20.674Z,1012.4
2017-09-28T03:43:20.694Z,1012.43
2017-09-28T03:44:20.711Z,1012.42
2017-09-28T03:45:20.732Z,1012.43
2017-09-28T03:46:20.749Z,1012.45
2017-09-28T03:47:20.767Z,1012.44
2017-09-28T03:48:20.786Z,1012.46
2017-09-28T03:49:20.805Z,1012.43
2017-09-28T03:50:20.826Z,1012.47
2017-09-28T03:51:20.841Z,1012.43
2017-09-28T03:52:20.861Z,1012.42
2017-09-28T03:53:20.879Z,1012.45
2017-09-28T03:54:20.898Z,1012.45
2017-09-28T03:55:20.917Z,1012.42
2017-09-28T03:56:20.935Z,1012.45
2017-09-28T03:57:20.955Z,1012.45
2017-09-28T03:58:20.973Z,1012.47
2017-09-28T03:59:20.993Z,1012.47
2017-09-28T04:00:21.011Z,1012.44
2017-09-28T04:01:21.059Z,1012.49
2017-09-28T04:02:21.046Z,1012.49
2017-09-28T04:03:21.066Z,1012.51
2017-09-28T04:04:21.085Z,1012.52
2017-09-28T04:05:21.104Z,1012.5
2017-09-28T04:06:21.121Z,1012.53
2017-09-28T04:07:21.140Z,1012.52
2017-09-28T04:08:21.158Z,1012.49
2017-09-28T04:09:21.178Z,1012.53
2017-09-28T04:10:21.196Z,1012.53
2017-09-28T04:11:21.214Z,1012.52
2017-09-28T04:12:21.233Z,1012.52
2017-09-28T04:13:21.251Z,1012.53
2017-09-28T04:14:21.271Z,1012.54
2017-09-28T04:15:21.287Z,1012.54
2017-09-28T04:16:21.306Z,1012.54
2017-09-28T04:17:21.325Z,1012.53
2017-09-28T04:18:21.345Z,1012.55
2017-09-28T04:19:21.362Z,1012.57
2017-09-28T04:20:21.382Z,1012.59
2017-09-28T04:21:21.400Z,1012.58
2017-09-28T04:22:21.420Z,1012.6
2017-09-28T04:23:21.436Z,1012.61
2017-09-28T04:24:21.455Z,1012.63
2017-09-28T04:25:21.473Z,1012.65
2017-09-28T04:26:21.490Z,1012.67
2017-09-28T04:27:21.510Z,1012.66
2017-09-28T04:28:21.529Z,1012.66
2017-09-28T04:29:21.547Z,1012.66
2017-09-28T04:30:21.566Z,1012.67
2017-09-28T04:31:21.586Z,1012.63
2017-09-28T04:32:21.603Z,1012.6
2017-09-28T04:33:21.620Z,1012.63
2017-09-28T04:34:21.640Z,1012.61
2017-09-28T04:35:21.657Z,1012.64
2017-09-28T04:36:21.676Z,1012.65
2017-09-28T04:37:21.694Z,1012.64
2017-09-28T04:38:21.713Z,1012.63
2017-09-28T04:39:21.736Z,1012.61
2017-09-28T04:40:21.751Z,1012.62
2017-09-28T04:41:21.768Z,1012.63
2017-09-28T04:42:21.786Z,1012.59
2017-09-28T04:43:21.804Z,1012.59
2017-09-28T04:44:21.823Z,1012.59
2017-09-28T04:45:21.841Z,1012.58
2017-09-28T04:46:21.860Z,1012.6
2017-09-28T04:47:21.879Z,1012.59
2017-09-28T04:48:21.898Z,1012.6
2017-09-28T04:49:21.915Z,1012.57
2017-09-28T04:50:21.934Z,1012.59
2017-09-28T04:51:22.004Z,1012.56
2017-09-28T04:52:21.970Z,1012.61
2017-09-28T04:53:21.992Z,1012.65
2017-09-28T04:54:22.008Z,1012.64
2017-09-28T04:55:22.025Z,1012.63
2017-09-28T04:56:22.045Z,1012.66
2017-09-28T04:57:22.064Z,1012.66
2017-09-28T04:58:22.082Z,1012.7
2017-09-28T04:59:22.100Z,1012.69
2017-09-28T05:00:22.119Z,1012.68
2017-09-28T05:01:22.136Z,1012.69
2017-09-28T05:02:22.153Z,1012.69
2017-09-28T05:03:22.171Z,1012.7
2017-09-28T05:04:22.190Z,1012.74
2017-09-28T05:05:22.208Z,1012.76
2017-09-28T05:06:22.229Z,1012.75
2017-09-28T05:07:22.245Z,1012.78
2017-09-28T05:08:22.268Z,1012.76
2017-09-28T05:09:22.282Z,1012.79
2017-09-28T05:10:22.299Z,1012.81
2017-09-28T05:11:22.317Z,1012.82
2017-09-28T05:12:22.337Z,1012.8
2017-09-28T05:13:22.356Z,1012.8
2017-09-28T05:14:22.378Z,1012.79
2017-09-28T05:15:22.394Z,1012.81
2017-09-28T05:16:22.410Z,1012.81
2017-09-28T05:17:22.426Z,1012.79
2017-09-28T05:18:22.444Z,1012.81
2017-09-28T05:19:22.466Z,1012.8
2017-09-28T05:20:22.501Z,1012.84
2017-09-28T05:21:22.499Z,1012.86
2017-09-28T05:22:22.518Z,1012.84
2017-09-28T05:23:22.535Z,1012.88
2017-09-28T05:24:22.554Z,1012.87
2017-09-28T05:25:22.575Z,1012.88
2017-09-28T05:26:22.592Z,1012.9
2017-09-28T05:27:22.610Z,1012.9
2017-09-28T05:28:22.626Z,1012.94
2017-09-28T05:29:22.645Z,1012.92
2017-09-28T05:30:22.666Z,1012.91
2017-09-28T05:31:22.682Z,1012.94
2017-09-28T05:32:22.698Z,1012.92
2017-09-28T05:33:22.718Z,1012.94
2017-09-28T05:34:22.740Z,1012.96
2017-09-28T05:35:22.755Z,1012.99
2017-09-28T05:36:22.773Z,1012.99
2017-09-28T05:37:22.790Z,1013.02
2017-09-28T05:38:22.811Z,1012.99
2017-09-28T05:39:22.827Z,1013.01
2017-09-28T05:40:22.844Z,1012.99
2017-09-28T05:41:22.864Z,1013.01
2017-09-28T05:42:22.883Z,1012.98
2017-09-28T05:43:22.899Z,1012.99
2017-09-28T05:44:22.917Z,1013
2017-09-28T05:45:22.936Z,1013.03
2017-09-28T05:46:22.980Z,1013.02
2017-09-28T05:47:22.971Z,1013.02
2017-09-28T05:48:22.991Z,1013.01
2017-09-28T05:49:23.008Z,1013.04
2017-09-28T05:50:23.027Z,1012.99
2017-09-28T05:51:23.044Z,1013.01
2017-09-28T05:52:23.066Z,1012.99
2017-09-28T05:53:23.082Z,1013.01
2017-09-28T05:54:23.105Z,1013.04
2017-09-28T05:55:23.117Z,1013.04
2017-09-28T05:56:23.138Z,1013.02
2017-09-28T05:57:23.155Z,1013.05
2017-09-28T05:58:23.174Z,1013.05
2017-09-28T05:59:23.191Z,1013
2017-09-28T06:00:23.209Z,1013.02
2017-09-28T06:01:23.230Z,1013.02
2017-09-28T06:02:23.246Z,1013.05
2017-09-28T06:03:23.264Z,1013.07
2017-09-28T06:04:23.282Z,1013.05
2017-09-28T06:05:23.298Z,1013.04
2017-09-28T06:06:23.318Z,1013.06
2017-09-28T06:07:23.337Z,1013.05
2017-09-28T06:08:23.360Z,1013.07
2017-09-28T06:09:23.371Z,1013.05
2017-09-28T06:10:23.390Z,1013.02
2017-09-28T06:11:23.409Z,1013.06
2017-09-28T06:12:23.426Z,1013.07
2017-09-28T06:13:23.446Z,1013.06
2017-09-28T06:14:23.467Z,1013.07
2017-09-28T06:15:23.482Z,1013.07
2017-09-28T06:16:23.499Z,1013.08
2017-09-28T06:17:23.518Z,1013.08
2017-09-28T06:18:23.536Z,1013.08
2017-09-28T06:19:23.553Z,1013.11
2017-09-28T06:20:23.572Z,1013.1
2017-09-28T06:21:23.593Z,1013.1
2017-09-28T06:22:23.609Z,1013.12
2017-09-28T06:23:23.629Z,1013.18
2017-09-28T06:24:23.647Z,1013.18
2017-09-28T06:25:23.665Z,1013.21
2017-09-28T06:26:23.684Z,1013.21
2017-09-28T06:27:23.703Z,1013.22
2017-09-28T06:28:23.719Z,1013.26
2017-09-28T06:29:23.737Z,1013.24
2017-09-28T06:30:23.760Z,1013.28
2017-09-28T06:31:23.773Z,1013.26
2017-09-28T06:32:23.794Z,1013.23
2017-09-28T06:33:23.812Z,1013.26
2017-09-28T06:34:23.828Z,1013.32
2017-09-28T06:35:23.847Z,1013.31
2017-09-28T06:36:23.865Z,1013.33
2017-09-28T06:37:23.885Z,1013.33
2017-09-28T06:38:23.903Z,1013.34
2017-09-28T06:39:23.921Z,1013.33
2017-09-28T06:40:23.940Z,1013.33
2017-09-28T06:41:23.957Z,1013.33
2017-09-28T06:42:23.975Z,1013.34
2017-09-28T06:43:23.993Z,1013.33
2017-09-28T06:44:24.012Z,1013.34
2017-09-28T06:45:24.029Z,1013.37
2017-09-28T06:46:24.048Z,1013.36
2017-09-28T06:47:24.066Z,1013.37
2017-09-28T06:48:24.084Z,1013.34
2017-09-28T06:49:24.102Z,1013.35
2017-09-28T06:50:24.121Z,1013.37
2017-09-28T06:51:24.139Z,1013.35
2017-09-28T06:52:24.157Z,1013.32
2017-09-28T06:53:24.174Z,1013.35
2017-09-28T06:54:24.195Z,1013.33
2017-09-28T06:55:24.213Z,1013.25
2017-09-28T06:56:24.231Z,1013.24
2017-09-28T06:57:24.250Z,1013.2
2017-09-28T06:58:24.271Z,1013.23
2017-09-28T06:59:24.291Z,1013.24
2017-09-28T07:00:24.306Z,1013.24
2017-09-28T07:01:24.322Z,1013.28
2017-09-28T07:02:24.342Z,1013.27
2017-09-28T07:03:24.361Z,1013.28
2017-09-28T07:04:24.379Z,1013.27
2017-09-28T07:05:24.396Z,1013.27
2017-09-28T07:06:24.414Z,1013.22
2017-09-28T07:07:24.433Z,1013.19
2017-09-28T07:08:24.454Z,1013.22
2017-09-28T07:09:24.470Z,1013.19
2017-09-28T07:10:24.491Z,1013.18
2017-09-28T07:11:24.509Z,1013.21
2017-09-28T07:12:24.541Z,1013.13
2017-09-28T07:13:24.543Z,1013.18
2017-09-28T07:14:24.564Z,1013.16
2017-09-28T07:15:24.582Z,1013.19
2017-09-28T07:16:24.600Z,1013.21
2017-09-28T07:17:24.620Z,1013.26
2017-09-28T07:18:24.635Z,1013.29
2017-09-28T07:19:24.656Z,1013.3
2017-09-28T07:20:24.674Z,1013.32
2017-09-28T07:21:24.694Z,1013.36
2017-09-28T07:22:24.715Z,1013.38
2017-09-28T07:23:24.730Z,1013.39
2017-09-28T07:24:24.747Z,1013.39
2017-09-28T07:25:24.768Z,1013.38
2017-09-28T07:26:24.786Z,1013.42
2017-09-28T07:27:24.803Z,1013.44
2017-09-28T07:28:24.822Z,1013.41
2017-09-28T07:29:24.841Z,1013.44
2017-09-28T07:30:24.861Z,1013.44
2017-09-28T07:31:24.881Z,1013.46
2017-09-28T07:32:24.898Z,1013.44
2017-09-28T07:33:24.921Z,1013.44
2017-09-28T07:34:24.938Z,1013.48
2017-09-28T07:35:24.955Z,1013.48
2017-09-28T07:36:24.971Z,1013.47
2017-09-28T07:37:24.992Z,1013.47
2017-09-28T07:38:25.013Z,1013.49
2017-09-28T07:39:25.031Z,1013.46
2017-09-28T07:40:25.050Z,1013.53
2017-09-28T07:41:25.067Z,1013.54
2017-09-28T07:42:25.087Z,1013.55
2017-09-28T07:43:25.107Z,1013.54
2017-09-28T07:44:25.125Z,1013.53
2017-09-28T07:45:25.150Z,1013.54
2017-09-28T07:46:25.163Z,1013.57
2017-09-28T07:47:25.181Z,1013.56
2017-09-28T07:48:25.199Z,1013.55
2017-09-28T07:49:25.220Z,1013.53
2017-09-28T07:50:25.238Z,1013.55
2017-09-28T07:51:25.256Z,1013.55
2017-09-28T07:52:25.276Z,1013.56
2017-09-28T07:53:25.294Z,1013.6
2017-09-28T07:54:25.314Z,1013.62
2017-09-28T07:55:25.333Z,1013.61
2017-09-28T07:56:25.353Z,1013.63
2017-09-28T07:57:25.377Z,1013.61
2017-09-28T07:58:25.391Z,1013.62
2017-09-28T07:59:25.410Z,1013.6
2017-09-28T08:00:25.428Z,1013.58
2017-09-28T08:01:25.450Z,1013.57
2017-09-28T08:02:25.467Z,1013.62
2017-09-28T08:03:25.487Z,1013.6
2017-09-28T08:04:25.506Z,1013.56
2017-09-28T08:05:25.524Z,1013.6
2017-09-28T08:06:25.542Z,1013.59
2017-09-28T08:07:25.563Z,1013.57
2017-09-28T08:08:25.583Z,1013.58
2017-09-28T08:09:25.603Z,1013.6
2017-09-28T08:10:25.621Z,1013.58
2017-09-28T08:11:25.748Z,1013.61
2017-09-28T08:12:25.662Z,1013.6
2017-09-28T08:13:25.678Z,1013.6
2017-09-28T08:14:25.698Z,1013.59
2017-09-28T08:15:25.722Z,1013.57
2017-09-28T08:16:25.737Z,1013.61
2017-09-28T08:17:25.755Z,1013.61
2017-09-28T08:18:25.777Z,1013.59
2017-09-28T08:19:25.794Z,1013.63
2017-09-28T08:20:25.818Z,1013.65
2017-09-28T08:21:25.833Z,1013.62
2017-09-28T08:22:25.853Z,1013.63
2017-09-28T08:23:25.872Z,1013.63
2017-09-28T08:24:25.891Z,1013.61
2017-09-28T08:25:25.910Z,1013.66
2017-09-28T08:26:25.930Z,1013.65
2017-09-28T08:27:25.949Z,1013.68
2017-09-28T08:28:25.968Z,1013.69
2017-09-28T08:29:25.990Z,1013.69
2017-09-28T08:30:26.007Z,1013.73
2017-09-28T08:31:26.026Z,1013.76
2017-09-28T08:32:26.047Z,1013.77
2017-09-28T08:33:26.064Z,1013.79
2017-09-28T08:34:26.088Z,1013.76
2017-09-28T08:35:26.106Z,1013.78
2017-09-28T08:36:26.126Z,1013.78
2017-09-28T08:37:26.145Z,1013.75
2017-09-28T08:38:26.168Z,1013.8
2017-09-28T08:39:26.184Z,1013.82
2017-09-28T08:40:26.205Z,1013.79
2017-09-28T08:41:26.223Z,1013.79
2017-09-28T08:42:26.243Z,1013.81
2017-09-28T08:43:26.262Z,1013.79
2017-09-28T08:44:26.281Z,1013.76
2017-09-28T08:45:26.302Z,1013.77
2017-09-28T08:46:26.320Z,1013.74
2017-09-28T08:47:26.340Z,1013.74
2017-09-28T08:48:26.361Z,1013.71
2017-09-28T08:49:26.381Z,1013.66
2017-09-28T08:50:26.400Z,1013.63
2017-09-28T08:51:26.421Z,1013.64
2017-09-28T08:52:26.441Z,1013.68
2017-09-28T08:53:26.458Z,1013.64
2017-09-28T08:54:26.479Z,1013.62
2017-09-28T08:55:26.498Z,1013.61
2017-09-28T08:56:26.519Z,1013.61
2017-09-28T08:57:26.556Z,1013.64
2017-09-28T08:58:26.559Z,1013.61
2017-09-28T08:59:26.580Z,1013.59
2017-09-28T09:00:26.599Z,1013.58
2017-09-28T09:01:26.619Z,1013.58
2017-09-28T09:02:26.640Z,1013.55
2017-09-28T09:03:26.660Z,1013.58
2017-09-28T09:04:26.678Z,1013.59
2017-09-28T09:05:26.699Z,1013.61
2017-09-28T09:06:26.718Z,1013.58
2017-09-28T09:07:26.740Z,1013.62
2017-09-28T09:08:26.760Z,1013.66
2017-09-28T09:09:26.780Z,1013.62
2017-09-28T09:10:26.800Z,1013.65
2017-09-28T09:11:26.820Z,1013.64
2017-09-28T09:12:26.892Z,1013.63
2017-09-28T09:13:26.861Z,1013.63
2017-09-28T09:14:26.881Z,1013.65
2017-09-28T09:15:26.902Z,1013.62
2017-09-28T09:16:26.922Z,1013.64
2017-09-28T09:17:26.942Z,1013.67
2017-09-28T09:18:26.963Z,1013.7
2017-09-28T09:19:26.981Z,1013.67
2017-09-28T09:20:27.004Z,1013.64
2017-09-28T09:21:27.028Z,1013.66
2017-09-28T09:22:27.043Z,1013.63
2017-09-28T09:23:27.063Z,1013.65
2017-09-28T09:24:27.084Z,1013.7
2017-09-28T09:25:27.107Z,1013.67
2017-09-28T09:26:27.126Z,1013.69
2017-09-28T09:27:27.146Z,1013.68
2017-09-28T09:28:27.166Z,1013.72
2017-09-28T09:29:27.189Z,1013.74
2017-09-28T09:30:27.208Z,1013.73
2017-09-28T09:31:27.230Z,1013.76
2017-09-28T09:32:27.252Z,1013.77
2017-09-28T09:33:27.269Z,1013.77
2017-09-28T09:34:27.291Z,1013.73
2017-09-28T09:35:27.313Z,1013.76
2017-09-28T09:36:27.332Z,1013.77
2017-09-28T09:37:27.353Z,1013.75
2017-09-28T09:38:27.374Z,1013.73
2017-09-28T09:39:27.415Z,1013.73
2017-09-28T09:40:27.416Z,1013.75
2017-09-28T09:41:27.441Z,1013.76
2017-09-28T09:42:27.459Z,1013.73
2017-09-28T09:43:27.478Z,1013.76
2017-09-28T09:44:27.504Z,1013.76
2017-09-28T09:45:27.518Z,1013.74
2017-09-28T09:46:27.541Z,1013.69
2017-09-28T09:47:27.563Z,1013.69
2017-09-28T09:48:27.585Z,1013.67
2017-09-28T09:49:27.604Z,1013.62
2017-09-28T09:50:27.626Z,1013.57
2017-09-28T09:51:27.644Z,1013.6
2017-09-28T09:52:27.667Z,1013.59
2017-09-28T09:53:27.688Z,1013.59
2017-09-28T09:54:27.711Z,1013.57
2017-09-28T09:55:27.729Z,1013.57
2017-09-28T09:56:27.751Z,1013.58
2017-09-28T09:57:27.773Z,1013.54
2017-09-28T09:58:27.794Z,1013.57
2017-09-28T09:59:27.814Z,1013.57
2017-09-28T10:00:27.837Z,1013.55
2017-09-28T10:01:27.857Z,1013.52
2017-09-28T10:02:27.880Z,1013.52
2017-09-28T10:03:27.900Z,1013.53
2017-09-28T10:04:27.928Z,1013.49
2017-09-28T10:05:27.943Z,1013.5
2017-09-28T10:06:27.963Z,1013.46
2017-09-28T10:07:27.985Z,1013.46
2017-09-28T10:08:28.008Z,1013.39
2017-09-28T10:09:28.030Z,1013.4
2017-09-28T10:10:28.049Z,1013.39
2017-09-28T10:11:28.073Z,1013.38
2017-09-28T10:12:28.093Z,1013.41
2017-09-28T10:13:28.116Z,1013.4
2017-09-28T10:14:28.141Z,1013.41
2017-09-28T10:15:28.157Z,1013.38
2017-09-28T10:16:28.179Z,1013.43
2017-09-28T10:17:28.202Z,1013.42
2017-09-28T10:18:28.222Z,1013.46
2017-09-28T10:19:28.243Z,1013.47
2017-09-28T10:20:28.266Z,1013.45
2017-09-28T10:21:28.288Z,1013.46
2017-09-28T10:22:28.309Z,1013.48
2017-09-28T10:23:28.331Z,1013.43
2017-09-28T10:24:28.353Z,1013.41
2017-09-28T10:25:28.375Z,1013.41
2017-09-28T10:26:28.396Z,1013.45
2017-09-28T10:27:28.419Z,1013.41
2017-09-28T10:28:28.441Z,1013.43
2017-09-28T10:29:28.464Z,1013.45
2017-09-28T10:30:28.485Z,1013.47
2017-09-28T10:31:28.507Z,1013.48
2017-09-28T10:32:28.529Z,1013.49
2017-09-28T10:33:28.551Z,1013.47
2017-09-28T10:34:28.572Z,1013.49
2017-09-28T10:35:28.596Z,1013.52
2017-09-28T10:36:28.616Z,1013.5
2017-09-28T10:37:28.642Z,1013.51
2017-09-28T10:38:28.661Z,1013.54
2017-09-28T10:39:28.684Z,1013.56
2017-09-28T10:40:28.705Z,1013.56
2017-09-28T10:41:28.727Z,1013.55
2017-09-28T10:42:28.750Z,1013.5
2017-09-28T10:43:28.772Z,1013.53
2017-09-28T10:44:28.793Z,1013.52
2017-09-28T10:45:28.820Z,1013.5
2017-09-28T10:46:28.838Z,1013.49
2017-09-28T10:47:28.861Z,1013.52
2017-09-28T10:48:28.882Z,1013.52
2017-09-28T10:49:28.905Z,1013.49
2017-09-28T10:50:28.927Z,1013.5
2017-09-28T10:51:28.949Z,1013.57
2017-09-28T10:52:28.971Z,1013.55
2017-09-28T10:53:28.995Z,1013.52
2017-09-28T10:54:29.016Z,1013.53
2017-09-28T10:55:29.040Z,1013.49
2017-09-28T10:56:29.061Z,1013.52
2017-09-28T10:57:29.082Z,1013.53
2017-09-28T10:58:29.106Z,1013.54
2017-09-28T10:59:29.129Z,1013.5
2017-09-28T11:00:29.156Z,1013.5
2017-09-28T11:01:29.175Z,1013.51
2017-09-28T11:02:29.196Z,1013.5
2017-09-28T11:03:29.218Z,1013.52
2017-09-28T11:04:29.242Z,1013.53
2017-09-28T11:05:29.265Z,1013.54
2017-09-28T11:06:29.289Z,1013.52
2017-09-28T11:07:29.311Z,1013.54
2017-09-28T11:08:29.333Z,1013.55
2017-09-28T11:09:29.356Z,1013.55
2017-09-28T11:10:29.380Z,1013.57
2017-09-28T11:11:29.402Z,1013.58
2017-09-28T11:12:29.425Z,1013.57
2017-09-28T11:13:29.448Z,1013.53
2017-09-28T11:14:29.471Z,1013.55
2017-09-28T11:15:29.491Z,1013.55
2017-09-28T11:16:29.516Z,1013.53
2017-09-28T11:17:29.551Z,1013.54
2017-09-28T11:18:29.561Z,1013.54
2017-09-28T11:19:29.585Z,1013.51
2017-09-28T11:20:29.609Z,1013.55
2017-09-28T11:21:29.631Z,1013.52
2017-09-28T11:22:29.751Z,1013.53
2017-09-28T11:23:29.778Z,1013.5
2017-09-28T11:24:29.697Z,1013.49
2017-09-28T11:25:29.777Z,1013.52
2017-09-28T11:26:29.775Z,1013.52
2017-09-28T11:27:29.783Z,1013.54
2017-09-28T11:28:29.914Z,1013.51
2017-09-28T11:29:29.913Z,1013.54
2017-09-28T11:30:29.942Z,1013.53
2017-09-28T11:31:29.940Z,1013.55
2017-09-28T11:32:29.938Z,1013.53
2017-09-28T11:33:29.947Z,1013.55
2017-09-28T11:34:29.944Z,1013.61
2017-09-28T11:35:29.955Z,1013.58
2017-09-28T11:36:29.976Z,1013.57
2017-09-28T11:37:30.081Z,1013.54
2017-09-28T11:38:30.080Z,1013.57
2017-09-28T11:39:30.090Z,1013.59
2017-09-28T11:40:30.089Z,1013.58
2017-09-28T11:41:30.090Z,1013.52
2017-09-28T11:42:30.114Z,1013.52
2017-09-28T11:43:30.140Z,1013.53
2017-09-28T11:44:30.161Z,1013.52
2017-09-28T11:45:30.185Z,1013.55
2017-09-28T11:46:30.211Z,1013.53
2017-09-28T11:47:30.231Z,1013.53
2017-09-28T11:48:30.252Z,1013.57
2017-09-28T11:49:30.282Z,1013.54
2017-09-28T11:50:30.302Z,1013.52
2017-09-28T11:51:30.325Z,1013.46
2017-09-28T11:52:30.347Z,1013.5
2017-09-28T11:53:30.371Z,1013.47
2017-09-28T11:54:30.394Z,1013.44
2017-09-28T11:55:30.418Z,1013.5
2017-09-28T11:56:30.441Z,1013.47
2017-09-28T11:57:30.467Z,1013.49
2017-09-28T11:58:30.491Z,1013.48
2017-09-28T11:59:30.511Z,1013.46
2017-09-28T12:00:30.535Z,1013.44
2017-09-28T12:01:30.557Z,1013.45
2017-09-28T12:02:30.587Z,1013.47
2017-09-28T12:03:30.604Z,1013.44
2017-09-28T12:04:30.628Z,1013.44
2017-09-28T12:05:30.658Z,1013.45
2017-09-28T12:06:30.677Z,1013.44
2017-09-28T12:07:30.699Z,1013.48
2017-09-28T12:08:30.723Z,1013.46
2017-09-28T12:09:30.747Z,1013.43
2017-09-28T12:10:30.770Z,1013.45
2017-09-28T12:11:30.793Z,1013.48
2017-09-28T12:12:30.817Z,1013.5
2017-09-28T12:13:30.841Z,1013.48
2017-09-28T12:14:30.864Z,1013.47
2017-09-28T12:15:30.887Z,1013.48
2017-09-28T12:16:30.911Z,1013.48
2017-09-28T12:17:30.936Z,1013.49
2017-09-28T12:18:30.957Z,1013.49
2017-09-28T12:19:30.982Z,1013.49
2017-09-28T12:20:31.007Z,1013.46
2017-09-28T12:21:31.030Z,1013.53
2017-09-28T12:22:31.056Z,1013.51
2017-09-28T12:23:31.077Z,1013.53
2017-09-28T12:24:31.101Z,1013.56
2017-09-28T12:25:31.124Z,1013.56
2017-09-28T12:26:31.148Z,1013.57
2017-09-28T12:27:31.172Z,1013.56
2017-09-28T12:28:31.197Z,1013.57
2017-09-28T12:29:31.220Z,1013.53
2017-09-28T12:30:31.243Z,1013.52
2017-09-28T12:31:31.267Z,1013.49
2017-09-28T12:32:31.290Z,1013.53
2017-09-28T12:33:31.314Z,1013.51
2017-09-28T12:34:31.339Z,1013.54
2017-09-28T12:35:31.363Z,1013.55
2017-09-28T12:36:31.383Z,1013.55
2017-09-28T12:37:31.410Z,1013.54
2017-09-28T12:38:31.433Z,1013.58
2017-09-28T12:39:31.456Z,1013.57
2017-09-28T12:40:31.481Z,1013.57
2017-09-28T12:41:31.506Z,1013.58
2017-09-28T12:42:31.531Z,1013.54
2017-09-28T12:43:31.553Z,1013.6
2017-09-28T12:44:31.577Z,1013.55
2017-09-28T12:45:31.601Z,1013.55
2017-09-28T12:46:31.625Z,1013.57
2017-09-28T12:47:31.648Z,1013.56
2017-09-28T12:48:31.672Z,1013.57
2017-09-28T12:49:31.697Z,1013.53
2017-09-28T12:50:31.721Z,1013.52
2017-09-28T12:51:31.744Z,1013.52
2017-09-28T12:52:31.770Z,1013.53
2017-09-28T12:53:31.792Z,1013.51
2017-09-28T12:54:31.817Z,1013.5
2017-09-28T12:55:31.839Z,1013.49
2017-09-28T12:56:31.865Z,1013.49
2017-09-28T12:57:31.887Z,1013.49
2017-09-28T12:58:31.913Z,1013.51
2017-09-28T12:59:31.934Z,1013.45
2017-09-28T13:00:31.961Z,1013.46
2017-09-28T13:01:31.983Z,1013.45
2017-09-28T13:02:32.008Z,1013.47
2017-09-28T13:03:32.031Z,1013.48
2017-09-28T13:04:32.056Z,1013.43
2017-09-28T13:05:32.081Z,1013.46
2017-09-28T13:06:32.104Z,1013.46
2017-09-28T13:07:32.131Z,1013.45
2017-09-28T13:08:32.152Z,1013.43
2017-09-28T13:09:32.175Z,1013.44
2017-09-28T13:10:32.201Z,1013.43
2017-09-28T13:11:32.226Z,1013.47
2017-09-28T13:12:32.248Z,1013.45
2017-09-28T13:13:32.272Z,1013.44
2017-09-28T13:14:32.297Z,1013.44
2017-09-28T13:15:32.321Z,1013.46
2017-09-28T13:16:32.343Z,1013.44
2017-09-28T13:17:32.369Z,1013.44
2017-09-28T13:18:32.392Z,1013.41
2017-09-28T13:19:32.416Z,1013.41
2017-09-28T13:20:32.441Z,1013.41
2017-09-28T13:21:32.465Z,1013.41
2017-09-28T13:22:32.490Z,1013.42
2017-09-28T13:23:32.513Z,1013.41
2017-09-28T13:24:32.537Z,1013.42
2017-09-28T13:25:32.562Z,1013.4
2017-09-28T13:26:32.587Z,1013.43
2017-09-28T13:27:32.610Z,1013.42
2017-09-28T13:28:32.635Z,1013.41
2017-09-28T13:29:32.661Z,1013.42
2017-09-28T13:30:32.686Z,1013.39
2017-09-28T13:31:32.708Z,1013.44
2017-09-28T13:32:32.733Z,1013.39
2017-09-28T13:33:32.758Z,1013.41
2017-09-28T13:34:32.781Z,1013.37
2017-09-28T13:35:32.805Z,1013.4
2017-09-28T13:36:32.828Z,1013.35
2017-09-28T13:37:32.855Z,1013.35
2017-09-28T13:38:32.877Z,1013.35
2017-09-28T13:39:32.905Z,1013.36
2017-09-28T13:40:32.926Z,1013.35
2017-09-28T13:41:32.951Z,1013.33
2017-09-28T13:42:32.975Z,1013.37
2017-09-28T13:43:33.000Z,1013.33
2017-09-28T13:44:33.024Z,1013.31
2017-09-28T13:45:33.046Z,1013.29
2017-09-28T13:46:33.070Z,1013.25
2017-09-28T13:47:33.096Z,1013.27
2017-09-28T13:48:33.120Z,1013.25
2017-09-28T13:49:33.144Z,1013.24
2017-09-28T13:50:33.169Z,1013.25
2017-09-28T13:51:33.195Z,1013.27
2017-09-28T13:52:33.220Z,1013.27
2017-09-28T13:53:33.241Z,1013.27
2017-09-28T13:54:33.268Z,1013.3